createdAt,value
2018-10-17T00:00:54.276Z,49.85
2018-10-17T00:03:22.500Z,50.48
2018-10-17T00:05:50.731Z,50.05
2018-10-17T00:08:18.963Z,54.67
2018-10-17T00:10:47.263Z,52.17
2018-10-17T00:13:15.613Z,50.12
2018-10-17T00:15:43.804Z,55.60
2018-10-17T00:18:12.036Z,48.28
2018-10-17T00:20:40.281Z,53.92
2018-10-17T00:23:09.066Z,52.13
2018-10-17T00:25:37.361Z,56.02
2018-10-17T00:28:05.600Z,55.40
2018-10-17T00:30:33.856Z,58.30
2018-10-17T00:33:02.141Z,53.00
2018-10-17T00:35:30.389Z,50.20
2018-10-17T00:37:58.588Z,52.50
2018-10-17T00:40:26.911Z,53.80
2018-10-17T00:42:55.793Z,59.53
2018-10-17T00:45:23.992Z,56.25
2018-10-17T00:47:52.260Z,54.90
2018-10-17T00:50:20.490Z,57.73
2018-10-17T00:52:48.774Z,61.55
2018-10-17T00:55:17.004Z,56.63
2018-10-17T00:57:45.288Z,56.40
2018-10-17T01:00:13.543Z,55.75
2018-10-17T01:02:41.758Z,57.43
2018-10-17T01:05:10.116Z,60.58
2018-10-17T01:07:38.481Z,64.90
2018-10-17T01:10:06.711Z,62.78
2018-10-17T01:12:34.977Z,56.77
2018-10-17T01:15:03.195Z,62.08
2018-10-17T01:17:31.419Z,56.15
2018-10-17T01:19:59.669Z,56.45
2018-10-17T01:22:28.039Z,55.88
2018-10-17T01:24:56.301Z,52.55
2018-10-17T01:27:24.955Z,58.02
2018-10-17T01:29:53.166Z,59.33
2018-10-17T01:32:21.428Z,53.60
2018-10-17T01:34:49.713Z,57.05
2018-10-17T01:37:18.146Z,53.35
2018-10-17T01:39:46.288Z,54.40
2018-10-17T01:42:14.543Z,55.15
2018-10-17T01:44:43.048Z,51.88
2018-10-17T01:47:11.399Z,53.80
2018-10-17T01:49:39.567Z,55.52
2018-10-17T01:52:08.727Z,53.98
2018-10-17T01:54:37.067Z,58.25
2018-10-17T01:57:05.897Z,55.55
2018-10-17T01:59:34.137Z,53.85
2018-10-17T02:02:02.364Z,52.35
2018-10-17T02:04:30.604Z,49.60
2018-10-17T02:06:58.878Z,48.52
2018-10-17T02:09:27.123Z,54.23
2018-10-17T02:11:55.351Z,59.00
2018-10-17T02:14:23.607Z,47.83
2018-10-17T02:16:52.012Z,48.80
2018-10-17T02:19:20.284Z,57.38
2018-10-17T02:21:48.559Z,51.88
2018-10-17T02:24:16.820Z,47.67
2018-10-17T02:26:45.081Z,55.10
2018-10-17T02:29:13.383Z,51.30
2018-10-17T02:31:41.547Z,46.30
2018-10-17T02:34:09.811Z,51.30
2018-10-17T02:36:38.074Z,49.03
2018-10-17T02:39:07.804Z,51.15
2018-10-17T02:41:36.063Z,49.75
2018-10-17T02:44:04.763Z,48.63
2018-10-17T02:46:33.036Z,51.00
2018-10-17T02:49:01.370Z,51.42
2018-10-17T02:51:29.556Z,51.65
2018-10-17T02:53:57.861Z,50.60
2018-10-17T02:56:26.192Z,49.93
2018-10-17T02:58:54.456Z,47.03
2018-10-17T03:01:22.690Z,50.33
2018-10-17T03:03:50.959Z,47.98
2018-10-17T03:06:19.228Z,48.40
2018-10-17T03:08:47.467Z,47.33
2018-10-17T03:11:15.818Z,45.45
2018-10-17T03:13:44.116Z,49.60
2018-10-17T03:16:12.363Z,45.43
2018-10-17T03:18:40.611Z,48.90
2018-10-17T03:21:08.853Z,49.08
2018-10-17T03:23:37.124Z,46.18
2018-10-17T03:26:05.623Z,44.98
2018-10-17T03:28:33.863Z,48.38
2018-10-17T03:31:02.121Z,47.27
2018-10-17T03:33:30.417Z,46.08
2018-10-17T03:35:59.525Z,45.52
2018-10-17T03:38:27.704Z,46.20
2018-10-17T03:40:56.017Z,45.20
2018-10-17T03:43:24.214Z,41.92
2018-10-17T03:45:52.439Z,42.88
2018-10-17T03:48:20.707Z,40.53
2018-10-17T03:50:49.443Z,45.98
2018-10-17T03:53:17.786Z,46.20
2018-10-17T03:55:46.037Z,47.00
2018-10-17T03:58:14.352Z,45.95
2018-10-17T04:00:42.564Z,43.30
2018-10-17T04:03:11.149Z,45.33
2018-10-17T04:05:39.436Z,47.70
2018-10-17T04:08:07.713Z,46.13
2018-10-17T04:10:35.925Z,47.73
2018-10-17T04:13:04.263Z,45.45
2018-10-17T04:15:32.485Z,48.48
2018-10-17T04:18:00.747Z,46.08
2018-10-17T04:20:29.021Z,45.15
2018-10-17T04:22:57.603Z,46.68
2018-10-17T04:25:26.084Z,44.23
2018-10-17T04:27:55.336Z,45.10
2018-10-17T04:30:23.781Z,47.90
2018-10-17T04:32:52.024Z,48.48
2018-10-17T04:35:20.313Z,47.50
2018-10-17T04:37:48.546Z,48.70
2018-10-17T04:40:16.802Z,47.53
2018-10-17T04:42:45.160Z,44.20
2018-10-17T04:45:13.380Z,47.13
2018-10-17T04:47:41.732Z,44.83
2018-10-17T04:50:10.932Z,47.37
2018-10-17T04:52:39.586Z,45.53
2018-10-17T04:55:08.815Z,47.58
2018-10-17T04:57:37.056Z,50.23
2018-10-17T05:00:07.497Z,47.00
2018-10-17T05:02:35.740Z,47.93
2018-10-17T05:05:04.121Z,52.50
2018-10-17T05:07:32.346Z,47.13
2018-10-17T05:10:00.612Z,48.23
2018-10-17T05:12:28.894Z,47.60
2018-10-17T05:14:57.160Z,47.00
2018-10-17T05:17:25.408Z,50.17
2018-10-17T05:19:53.755Z,46.97
2018-10-17T05:22:22.096Z,45.73
2018-10-17T05:24:50.326Z,47.67
2018-10-17T05:27:18.581Z,49.58
2018-10-17T05:29:46.832Z,47.27
2018-10-17T05:32:15.203Z,49.73
2018-10-17T05:34:43.469Z,50.27
2018-10-17T05:37:11.818Z,49.38
2018-10-17T05:39:40.200Z,49.50
2018-10-17T05:42:08.454Z,47.67
2018-10-17T05:44:36.853Z,50.88
2018-10-17T05:47:05.308Z,51.97
2018-10-17T05:49:33.540Z,48.75
2018-10-17T05:52:01.793Z,48.37
2018-10-17T05:54:30.030Z,46.08
2018-10-17T05:56:58.296Z,45.77
2018-10-17T05:59:26.563Z,44.40
2018-10-17T06:01:55.230Z,46.15
2018-10-17T06:04:23.455Z,46.08
2018-10-17T06:06:51.733Z,45.50
2018-10-17T06:09:20.113Z,44.70
2018-10-17T06:11:48.356Z,45.95
2018-10-17T06:14:17.461Z,42.48
2018-10-17T06:16:46.782Z,44.25
2018-10-17T06:19:15.188Z,42.08
2018-10-17T06:21:43.449Z,40.78
2018-10-17T06:24:11.699Z,41.20
2018-10-17T06:26:39.932Z,41.35
2018-10-17T06:29:08.277Z,39.48
2018-10-17T06:31:36.615Z,37.58
2018-10-17T06:34:04.988Z,37.70
2018-10-17T06:36:33.163Z,39.98
2018-10-17T06:39:01.457Z,38.08
2018-10-17T06:41:29.700Z,38.67
2018-10-17T06:43:58.095Z,36.45
2018-10-17T06:46:26.432Z,37.42
2018-10-17T06:48:54.698Z,35.60
2018-10-17T06:51:22.936Z,36.28
2018-10-17T06:53:51.267Z,34.43
2018-10-17T06:56:19.498Z,37.03
2018-10-17T06:58:47.776Z,35.15
2018-10-17T07:01:16.130Z,32.33
2018-10-17T07:03:44.289Z,33.85
2018-10-17T07:06:12.572Z,33.20
2018-10-17T07:08:40.969Z,32.28
2018-10-17T07:11:09.191Z,34.03
2018-10-17T07:13:37.465Z,30.90
2018-10-17T07:16:05.734Z,33.38
2018-10-17T07:18:34.032Z,32.90
2018-10-17T07:21:02.293Z,31.50
2018-10-17T07:23:30.517Z,33.73
2018-10-17T07:25:58.768Z,33.18
2018-10-17T07:28:27.125Z,33.38
2018-10-17T07:30:55.397Z,33.33
2018-10-17T07:33:23.670Z,30.27
2018-10-17T07:35:52.112Z,31.40
2018-10-17T07:38:20.340Z,31.95
2018-10-17T07:40:48.639Z,31.15
2018-10-17T07:43:16.891Z,31.85
2018-10-17T07:45:45.196Z,30.05
2018-10-17T07:48:13.721Z,35.35
2018-10-17T07:50:41.914Z,31.05
2018-10-17T07:53:10.765Z,29.65
2018-10-17T07:55:39.029Z,28.15
2018-10-17T07:58:07.324Z,29.63
2018-10-17T08:00:35.565Z,29.27
2018-10-17T08:03:03.838Z,25.12
2018-10-17T08:05:32.080Z,26.62
2018-10-17T08:08:00.309Z,28.98
2018-10-17T08:10:28.620Z,26.10
2018-10-17T08:12:56.861Z,26.45
2018-10-17T08:15:25.076Z,26.00
2018-10-17T08:17:53.332Z,24.70
2018-10-17T08:20:21.573Z,26.75
2018-10-17T08:22:49.813Z,25.12
2018-10-17T08:25:18.063Z,23.92
2018-10-17T08:27:46.369Z,23.77
2018-10-17T08:30:14.746Z,22.80
2018-10-17T08:32:43.019Z,23.00
2018-10-17T08:35:11.317Z,23.73
2018-10-17T08:37:39.897Z,21.77
2018-10-17T08:40:07.809Z,21.55
2018-10-17T08:42:36.033Z,22.87
2018-10-17T08:45:04.588Z,21.37
2018-10-17T08:47:32.787Z,21.52
2018-10-17T08:50:01.104Z,19.70
2018-10-17T08:52:29.312Z,22.20
2018-10-17T08:54:57.576Z,20.97
2018-10-17T08:57:25.820Z,20.62
2018-10-17T08:59:54.073Z,22.25
2018-10-17T09:02:23.257Z,20.55
2018-10-17T09:04:51.512Z,21.60
2018-10-17T09:07:19.787Z,21.42
2018-10-17T09:09:48.041Z,20.97
2018-10-17T09:12:16.418Z,19.65
2018-10-17T09:14:45.294Z,21.03
2018-10-17T09:17:13.587Z,18.95
2018-10-17T09:19:42.032Z,18.05
2018-10-17T09:22:10.347Z,18.90
2018-10-17T09:24:38.368Z,18.20
2018-10-17T09:27:06.639Z,19.30
2018-10-17T09:29:35.517Z,18.73
2018-10-17T09:32:03.857Z,18.53
2018-10-17T09:34:32.110Z,20.02
2018-10-17T09:37:00.333Z,18.35
2018-10-17T09:39:28.719Z,17.70
2018-10-17T09:41:57.056Z,19.80
2018-10-17T09:44:25.260Z,19.82
2018-10-17T09:46:53.510Z,19.82
2018-10-17T09:49:21.777Z,18.50
2018-10-17T09:51:50.112Z,19.10
2018-10-17T09:54:18.460Z,18.27
2018-10-17T09:56:46.660Z,18.95
2018-10-17T09:59:14.910Z,16.70
2018-10-17T10:01:54.096Z,18.27
2018-10-17T10:04:22.937Z,15.95
2018-10-17T10:06:51.246Z,15.40
2018-10-17T10:09:20.091Z,13.93
2018-10-17T10:11:48.317Z,15.45
2018-10-17T10:14:16.529Z,14.90
2018-10-17T10:16:44.788Z,14.00
2018-10-17T10:19:13.020Z,14.78
2018-10-17T10:21:41.289Z,13.13
2018-10-17T10:24:09.548Z,12.35
2018-10-17T10:26:37.765Z,12.03
2018-10-17T10:29:06.036Z,12.40
2018-10-17T10:31:34.309Z,12.00
2018-10-17T10:34:02.634Z,12.37
2018-10-17T10:36:30.873Z,12.53
2018-10-17T10:38:59.066Z,12.65
2018-10-17T10:41:27.272Z,12.70
2018-10-17T10:43:55.592Z,13.38
2018-10-17T10:46:23.779Z,13.60
2018-10-17T10:48:52.032Z,14.60
2018-10-17T10:51:20.397Z,14.03
2018-10-17T10:53:48.561Z,14.27
2018-10-17T10:56:16.857Z,14.20
2018-10-17T10:58:45.227Z,13.43
2018-10-17T11:01:13.506Z,12.53
2018-10-17T11:03:41.762Z,13.68
2018-10-17T11:06:09.982Z,14.20
2018-10-17T11:08:38.279Z,13.50
2018-10-17T11:11:06.585Z,15.40
2018-10-17T11:13:34.867Z,13.98
2018-10-17T11:16:03.102Z,13.75
2018-10-17T11:18:31.369Z,15.13
2018-10-17T11:20:59.656Z,16.15
2018-10-17T11:23:27.861Z,15.03
2018-10-17T11:25:56.185Z,13.45
2018-10-17T11:28:24.418Z,14.68
2018-10-17T11:30:52.674Z,14.80
2018-10-17T11:33:21.022Z,14.73
2018-10-17T11:35:49.268Z,20.95
2018-10-17T11:38:17.745Z,14.83
2018-10-17T11:40:46.379Z,13.32
2018-10-17T11:43:14.450Z,13.72
2018-10-17T11:45:42.720Z,14.00
2018-10-17T11:48:11.023Z,15.55
2018-10-17T11:50:39.366Z,13.58
2018-10-17T11:53:07.608Z,12.30
2018-10-17T11:55:35.881Z,11.55
2018-10-17T11:58:04.173Z,12.28
2018-10-17T12:00:32.476Z,11.73
2018-10-17T12:03:01.662Z,12.28
2018-10-17T12:05:30.223Z,10.88
2018-10-17T12:07:58.233Z,13.10
2018-10-17T12:10:26.539Z,12.23
2018-10-17T12:12:55.768Z,12.45
2018-10-17T12:15:24.011Z,11.43
2018-10-17T12:17:52.325Z,12.17
2018-10-17T12:20:20.596Z,13.30
2018-10-17T12:22:48.877Z,11.40
2018-10-17T12:25:17.166Z,10.70
2018-10-17T12:27:45.442Z,11.85
2018-10-17T12:30:14.880Z,12.33
2018-10-17T12:32:43.046Z,11.85
2018-10-17T12:35:12.257Z,10.68
2018-10-17T12:37:41.163Z,11.22
2018-10-17T12:40:10.346Z,11.60
2018-10-17T12:42:38.637Z,11.75
2018-10-17T12:45:07.156Z,11.83
2018-10-17T12:47:35.568Z,10.43
2018-10-17T12:50:04.017Z,10.35
2018-10-17T12:52:32.347Z,10.93
2018-10-17T12:55:00.554Z,11.20
2018-10-17T12:57:28.922Z,10.18
2018-10-17T12:59:57.336Z,10.88
2018-10-17T13:02:25.697Z,10.15
2018-10-17T13:04:53.913Z,11.33
2018-10-17T13:07:22.129Z,12.50
2018-10-17T13:09:50.309Z,10.98
2018-10-17T13:12:18.547Z,10.65
2018-10-17T13:14:46.965Z,10.03
2018-10-17T13:17:15.282Z,10.75
2018-10-17T13:19:43.612Z,9.55
2018-10-17T13:22:11.940Z,10.30
2018-10-17T13:24:40.311Z,10.88
2018-10-17T13:27:08.670Z,11.63
2018-10-17T13:29:36.935Z,10.20
2018-10-17T13:32:05.236Z,9.85
2018-10-17T13:34:33.469Z,10.37
2018-10-17T13:37:01.911Z,10.70
2018-10-17T13:39:30.212Z,11.08
2018-10-17T13:41:58.488Z,10.32
2018-10-17T13:44:27.051Z,10.58
2018-10-17T13:46:55.265Z,10.05
2018-10-17T13:49:23.561Z,10.23
2018-10-17T13:51:52.005Z,10.68
2018-10-17T13:54:21.165Z,10.13
2018-10-17T13:56:49.419Z,11.08
2018-10-17T13:59:17.805Z,10.28
2018-10-17T14:01:46.106Z,10.38
2018-10-17T14:04:14.531Z,12.23
2018-10-17T14:06:42.689Z,9.95
2018-10-17T14:09:11.743Z,10.20
2018-10-17T14:11:40.189Z,11.73
2018-10-17T14:14:08.418Z,8.98
2018-10-17T14:16:36.753Z,9.20
2018-10-17T14:19:05.022Z,10.43
2018-10-17T14:21:33.241Z,9.90
2018-10-17T14:24:01.646Z,9.97
2018-10-17T14:26:29.853Z,9.70
2018-10-17T14:28:58.195Z,12.70
2018-10-17T14:31:26.492Z,11.12
2018-10-17T14:33:54.752Z,10.32
2018-10-17T14:36:23.021Z,12.33
2018-10-17T14:38:51.252Z,10.43
2018-10-17T14:41:19.590Z,8.78
2018-10-17T14:43:47.923Z,11.12
2018-10-17T14:46:16.245Z,11.03
2018-10-17T14:48:44.501Z,11.10
2018-10-17T14:51:13.182Z,10.87
2018-10-17T14:53:41.645Z,11.70
2018-10-17T14:56:10.042Z,10.60
2018-10-17T14:58:38.293Z,12.93
2018-10-17T15:01:06.563Z,13.40
2018-10-17T15:03:34.819Z,13.95
2018-10-17T15:06:03.212Z,12.88
2018-10-17T15:08:31.683Z,13.65
2018-10-17T15:11:01.056Z,14.70
2018-10-17T15:13:29.207Z,12.33
2018-10-17T15:15:57.521Z,12.37
2018-10-17T15:18:25.807Z,31.57
2018-10-17T15:20:54.169Z,40.67
2018-10-17T15:23:22.969Z,45.95
2018-10-17T15:25:51.391Z,45.50
2018-10-17T15:28:19.710Z,46.18
2018-10-17T15:30:48.016Z,46.58
2018-10-17T15:33:16.368Z,46.58
2018-10-17T15:35:44.825Z,47.60
2018-10-17T15:38:13.480Z,49.55
2018-10-17T15:40:41.791Z,53.38
2018-10-17T15:43:10.214Z,50.85
2018-10-17T15:45:38.483Z,52.00
2018-10-17T15:48:06.805Z,53.83
2018-10-17T15:50:35.189Z,50.48
2018-10-17T15:53:04.787Z,52.08
2018-10-17T15:55:33.008Z,52.38
2018-10-17T15:58:01.427Z,55.95
2018-10-17T16:00:30.018Z,53.53
2018-10-17T16:02:58.883Z,56.65
2018-10-17T16:05:27.337Z,55.45
2018-10-17T16:07:55.847Z,55.77
2018-10-17T16:10:24.245Z,57.08
2018-10-17T16:12:52.659Z,58.53
2018-10-17T16:15:21.076Z,55.40
2018-10-17T16:17:49.409Z,60.57
2018-10-17T16:20:19.032Z,62.30
2018-10-17T16:22:48.475Z,61.63
2018-10-17T16:25:17.224Z,64.12
2018-10-17T16:27:46.129Z,63.08
2018-10-17T16:30:15.569Z,60.92
2018-10-17T16:32:44.564Z,63.73
2018-10-17T16:35:13.147Z,62.70
2018-10-17T16:37:42.340Z,61.42
2018-10-17T16:40:11.199Z,67.20
2018-10-17T16:42:40.437Z,70.72
2018-10-17T16:45:09.590Z,68.50
2018-10-17T16:47:39.320Z,68.87
2018-10-17T16:50:07.814Z,72.70
2018-10-17T16:52:36.644Z,69.85
2018-10-17T16:55:06.190Z,67.85
2018-10-17T16:57:35.154Z,67.85
2018-10-17T17:00:04.047Z,70.47
2018-10-17T17:02:33.418Z,71.42
2018-10-17T17:05:01.879Z,68.92
2018-10-17T17:07:31.754Z,73.12
2018-10-17T17:10:00.972Z,75.55
2018-10-17T17:12:29.448Z,74.05
2018-10-17T17:14:58.703Z,74.77
2018-10-17T17:17:27.198Z,67.85
2018-10-17T17:20:02.523Z,78.87
2018-10-17T17:22:31.522Z,73.57
2018-10-17T17:24:59.983Z,69.05
2018-10-17T17:27:29.242Z,73.50
2018-10-17T17:29:58.290Z,76.95
2018-10-17T17:32:28.511Z,76.20
2018-10-17T17:34:57.615Z,74.05
2018-10-17T17:37:26.612Z,78.30
2018-10-17T17:39:56.919Z,82.30
2018-10-17T17:42:30.704Z,84.65
2018-10-17T17:44:59.500Z,79.32
2018-10-17T17:47:32.645Z,80.92
2018-10-17T17:50:03.056Z,69.77
2018-10-17T17:52:32.715Z,80.05
2018-10-17T17:55:05.214Z,81.70
2018-10-17T17:57:34.872Z,79.30
2018-10-17T18:00:05.616Z,80.10
2018-10-17T18:02:34.695Z,84.40
2018-10-17T18:05:05.293Z,85.62
2018-10-17T18:07:34.459Z,80.90
2018-10-17T18:10:05.710Z,78.65
2018-10-17T18:12:34.591Z,84.45
2018-10-17T18:15:03.564Z,81.67
2018-10-17T18:17:33.984Z,85.77
2018-10-17T18:22:40.348Z,85.42
2018-10-17T18:25:08.810Z,84.22
2018-10-17T18:27:40.203Z,86.90
2018-10-17T18:30:11.108Z,93.10
2018-10-17T18:32:40.012Z,82.55
2018-10-17T18:35:08.729Z,86.32
2018-10-17T18:37:38.031Z,90.60
2018-10-17T18:40:08.219Z,98.20
2018-10-17T18:42:39.008Z,86.55
2018-10-17T18:45:07.703Z,87.17
2018-10-17T18:47:36.047Z,85.90
2018-10-17T18:50:04.573Z,80.30
2018-10-17T18:52:32.880Z,88.92
2018-10-17T18:55:01.177Z,90.60
2018-10-17T18:57:30.176Z,97.27
2018-10-17T18:59:58.513Z,99.28
2018-10-17T19:02:26.852Z,102.92
2018-10-17T19:04:55.619Z,98.07
2018-10-17T19:07:24.219Z,95.53
2018-10-17T19:09:52.536Z,103.85
2018-10-17T19:12:21.224Z,102.62
2018-10-17T19:14:49.571Z,113.47
2018-10-17T19:17:18.322Z,99.20
2018-10-17T19:19:46.853Z,93.80
2018-10-17T19:22:16.279Z,109.85
2018-10-17T19:24:45.298Z,116.15
2018-10-17T19:27:13.660Z,99.23
2018-10-17T19:29:42.168Z,115.08
2018-10-17T19:32:10.542Z,120.92
2018-10-17T19:34:38.996Z,96.32
2018-10-17T19:37:07.322Z,107.70
2018-10-17T19:39:36.688Z,117.63
2018-10-17T19:42:06.378Z,113.72
2018-10-17T19:44:34.764Z,133.20
2018-10-17T19:47:03.100Z,120.77
2018-10-17T19:49:31.556Z,139.18
2018-10-17T19:52:00.558Z,128.65
2018-10-17T19:54:28.842Z,152.78
2018-10-17T19:56:58.113Z,140.23
2018-10-17T19:59:26.405Z,121.47
2018-10-17T20:01:55.214Z,127.55
2018-10-17T20:04:23.553Z,116.55
2018-10-17T20:06:52.856Z,124.33
2018-10-17T20:09:21.221Z,112.85
2018-10-17T20:11:49.500Z,137.33
2018-10-17T20:14:17.931Z,124.65
2018-10-17T20:16:46.185Z,128.75
2018-10-17T20:19:14.980Z,118.65
2018-10-17T20:21:43.294Z,104.65
2018-10-17T20:24:12.062Z,102.40
2018-10-17T20:26:41.015Z,134.65
2018-10-17T20:29:09.338Z,127.80
2018-10-17T20:31:37.750Z,147.37
2018-10-17T20:34:06.079Z,144.55
2018-10-17T20:36:34.389Z,121.47
2018-10-17T20:39:02.704Z,120.15
2018-10-17T20:41:31.004Z,114.65
2018-10-17T20:43:59.686Z,136.60
2018-10-17T20:46:28.071Z,133.97
2018-10-17T20:48:56.445Z,139.50
2018-10-17T20:51:24.804Z,138.75
2018-10-17T20:53:53.254Z,119.60
2018-10-17T20:56:22.660Z,128.53
2018-10-17T20:58:50.945Z,105.10
2018-10-17T21:01:19.564Z,113.10
2018-10-17T21:03:48.013Z,130.30
2018-10-17T21:06:16.294Z,141.05
2018-10-17T21:08:44.685Z,124.12
2018-10-17T21:11:13.063Z,103.50
2018-10-17T21:13:41.345Z,107.87
2018-10-17T21:16:09.670Z,103.30
2018-10-17T21:18:38.081Z,101.27
2018-10-17T21:21:06.721Z,96.87
2018-10-17T21:23:34.986Z,85.95
2018-10-17T21:26:03.338Z,79.97
2018-10-17T21:28:31.606Z,111.30
2018-10-17T21:30:59.947Z,105.30
2018-10-17T21:33:28.242Z,94.87
2018-10-17T21:35:56.503Z,108.67
2018-10-17T21:38:24.911Z,101.90
2018-10-17T21:40:53.207Z,85.80
2018-10-17T21:43:21.583Z,106.90
2018-10-17T21:45:49.840Z,115.13
2018-10-17T21:48:18.074Z,118.72
2018-10-17T21:50:46.399Z,94.75
2018-10-17T21:53:14.668Z,106.40
2018-10-17T21:55:43.880Z,91.70
2018-10-17T21:58:12.132Z,107.97
2018-10-17T22:00:40.384Z,102.83
2018-10-17T22:03:08.664Z,109.37
2018-10-17T22:05:36.920Z,86.67
2018-10-17T22:08:05.656Z,104.80
2018-10-17T22:10:33.911Z,136.40
2018-10-17T22:13:02.149Z,180.00
2018-10-17T22:15:30.441Z,245.67
2018-10-17T22:17:58.759Z,251.27
2018-10-17T22:20:27.090Z,165.37
2018-10-17T22:22:55.319Z,181.00
2018-10-17T22:25:23.629Z,83.47
2018-10-17T22:27:51.890Z,163.80
2018-10-17T22:30:20.314Z,148.02
2018-10-17T22:32:48.589Z,207.57
2018-10-17T22:35:16.875Z,198.40
2018-10-17T22:37:45.227Z,355.63
2018-10-17T22:40:13.520Z,491.40
2018-10-17T22:42:42.103Z,356.20
2018-10-17T22:45:10.324Z,417.10
2018-10-17T22:47:38.576Z,382.47
2018-10-17T22:50:07.500Z,204.17
2018-10-17T22:52:35.755Z,487.60
2018-10-17T22:55:04.021Z,183.53
2018-10-17T22:57:32.276Z,122.40
2018-10-17T23:00:00.517Z,205.63
2018-10-17T23:02:28.804Z,149.83
2018-10-17T23:04:57.655Z,85.62
2018-10-17T23:07:25.935Z,153.67
2018-10-17T23:09:54.163Z,132.20
2018-10-17T23:12:22.444Z,183.27
2018-10-17T23:14:50.696Z,122.30
2018-10-17T23:17:19.363Z,107.32
2018-10-17T23:19:47.604Z,101.62
2018-10-17T23:22:15.832Z,127.27
2018-10-17T23:24:44.082Z,160.03
2018-10-17T23:27:12.372Z,246.63
2018-10-17T23:29:40.606Z,162.60
2018-10-17T23:32:08.872Z,84.57
2018-10-17T23:34:37.145Z,168.23
2018-10-17T23:37:05.662Z,90.90
2018-10-17T23:39:33.887Z,64.57
2018-10-17T23:42:02.171Z,74.90
2018-10-17T23:44:30.431Z,181.23
2018-10-17T23:46:58.660Z,180.82
2018-10-17T23:49:26.946Z,52.40
2018-10-17T23:51:55.211Z,104.13
2018-10-17T23:54:23.492Z,75.47
2018-10-17T23:56:51.707Z,252.10
2018-10-17T23:59:20.000Z,166.60
